Time;durP1;ratioP1;P1;durP2;ratioP2;P2;SDS_P1;SDS_P2;PMS_P1;PMS_P2;Temp;Humidity;BMP_temperature;BMP_pressure;BME280_temperature;BME280_humidity;BME280_pressure;Samples;Min_cycle;Max_cycle;Signal;HPM_P1;HPM_P2
2022/08/15 00:01:21;;;;;;;3.20;2.88;;;;;;;28.50;39.71;96274.34;5095815;28;20048;-35
2022/08/15 00:03:51;;;;;;;2.90;2.70;;;;;;;28.52;39.89;96283.69;5095766;28;20378;-35
2022/08/15 00:06:23;;;;;;;2.75;2.55;;;;;;;28.49;39.97;96284.78;5095439;28;20040;-35
2022/08/15 00:08:53;;;;;;;2.50;2.30;;;;;;;28.49;39.96;96284.03;5095811;28;20081;-35
2022/08/15 00:11:31;;;;;;;2.92;2.70;;;;;;;28.47;39.82;96278.25;5095605;28;20105;-35
2022/08/15 00:14:07;;;;;;;2.88;2.65;;;;;;;28.51;39.66;96265.44;5095884;28;20101;-35
2022/08/15 00:16:36;;;;;;;2.80;2.60;;;;;;;28.48;39.56;96249.06;5095372;28;20095;-36
2022/08/15 00:19:12;;;;;;;2.67;2.47;;;;;;;28.47;39.53;96244.75;5095291;28;20535;-35
2022/08/15 00:21:43;;;;;;;2.63;2.42;;;;;;;28.48;39.57;96249.06;5095529;28;20397;-35
2022/08/15 00:24:10;;;;;;;2.80;2.60;;;;;;;28.48;39.28;96246.25;5095676;28;20032;-35
2022/08/15 00:26:36;;;;;;;2.83;2.63;;;;;;;28.49;39.43;96233.81;5095087;28;20123;-35
2022/08/15 00:29:03;;;;;;;3.00;2.70;;;;;;;28.47;39.49;96230.81;5095356;28;20102;-35
2022/08/15 00:31:31;;;;;;;2.38;2.17;;;;;;;28.46;39.40;96229.31;5095094;28;20023;-35
2022/08/15 00:34:00;;;;;;;2.97;2.70;;;;;;;28.45;39.56;96219.47;5095373;28;20470;-35
2022/08/15 00:36:26;;;;;;;2.92;2.60;;;;;;;28.50;39.04;96224.88;5095218;28;20020;-35
2022/08/15 00:38:51;;;;;;;2.67;2.47;;;;;;;28.49;39.34;96220.59;5095093;28;20020;-35
2022/08/15 00:44:07;;;;;;;2.80;2.60;;;;;;;28.43;39.35;96214.47;5095259;28;20028;-35
2022/08/15 00:46:33;;;;;;;2.72;2.53;;;;;;;28.45;39.42;96211.84;5094772;28;20454;-35
2022/08/15 00:48:59;;;;;;;2.40;2.20;;;;;;;28.44;39.26;96215.94;5094466;28;20081;-35
2022/08/15 00:51:34;;;;;;;3.05;2.72;;;;;;;28.44;39.27;96209.59;5094767;28;20016;-35
2022/08/15 00:54:15;;;;;;;2.85;2.55;;;;;;;28.44;39.19;96218.72;5094685;28;20032;-35
2022/08/15 00:56:50;;;;;;;2.80;2.60;;;;;;;28.41;39.35;96225.41;5094671;28;20020;-36
2022/08/15 00:59:21;;;;;;;2.67;2.47;;;;;;;28.41;39.37;96227.47;5094656;28;20026;-36
2022/08/15 01:01:47;;;;;;;4.20;2.85;;;;;;;28.44;39.20;96226.34;5094610;28;20020;-35
2022/08/15 01:04:15;;;;;;;2.53;2.33;;;;;;;28.41;39.01;96233.03;5094607;28;20024;-36
2022/08/15 01:06:42;;;;;;;2.80;2.58;;;;;;;28.40;39.10;96221.13;5094324;28;20097;-35
2022/08/15 01:09:09;;;;;;;2.90;2.60;;;;;;;28.44;38.93;96229.88;5094621;28;20054;-36
2022/08/15 01:11:41;;;;;;;3.20;2.85;;;;;;;28.42;39.15;96232.50;5094407;28;20028;-35
2022/08/15 01:14:07;;;;;;;3.25;2.95;;;;;;;28.39;38.86;96221.69;5094450;28;20028;-37
2022/08/15 01:16:34;;;;;;;3.78;2.90;;;;;;;28.39;38.94;96238.41;5094286;28;20025;-35
2022/08/15 01:19:07;;;;;;;3.47;2.78;;;;;;;28.37;38.91;96244.53;5094368;28;20046;-35
2022/08/15 01:21:38;;;;;;;2.78;2.58;;;;;;;28.37;38.90;96243.78;5094250;28;20023;-35
2022/08/15 01:24:06;;;;;;;3.05;2.80;;;;;;;28.36;38.83;96242.28;5094487;28;20092;-35
2022/08/15 01:26:33;;;;;;;3.33;3.03;;;;;;;28.38;38.50;96250.88;5093010;28;20370;-35
2022/08/15 01:29:00;;;;;;;3.40;3.10;;;;;;;28.38;38.65;96248.81;5094425;28;20471;-36
2022/08/15 01:31:27;;;;;;;3.00;2.70;;;;;;;28.38;38.46;96239.72;5094088;28;20056;-35
2022/08/15 01:33:57;;;;;;;3.05;2.70;;;;;;;28.39;38.47;96232.84;5094156;28;20436;-35
2022/08/15 01:36:26;;;;;;;3.35;3.05;;;;;;;28.38;38.28;96237.66;5094082;28;20069;-35
2022/08/15 01:38:59;;;;;;;3.25;2.78;;;;;;;28.37;38.28;96241.75;5094066;28;20061;-35
2022/08/15 01:41:41;;;;;;;3.10;2.90;;;;;;;28.39;37.86;96238.41;5094117;28;20472;-35
2022/08/15 01:44:22;;;;;;;3.30;3.00;;;;;;;28.38;38.05;96240.47;5094070;28;20478;-36
2022/08/15 01:46:59;;;;;;;4.55;3.33;;;;;;;28.40;37.84;96248.28;5093710;28;20030;-35
2022/08/15 01:49:57;;;;;;;2.90;2.70;;;;;;;28.38;37.73;96243.25;5093634;28;20110;-35
2022/08/15 01:52:26;;;;;;;3.20;2.90;;;;;;;28.38;37.74;96253.66;5093932;28;20036;-35
2022/08/15 01:54:54;;;;;;;3.17;2.90;;;;;;;28.37;37.67;96246.59;5093604;28;20024;-36
2022/08/15 01:57:20;;;;;;;3.35;3.05;;;;;;;28.40;37.65;96243.44;5093771;28;20024;-36
2022/08/15 01:59:54;;;;;;;3.10;2.80;;;;;;;28.35;37.87;96252.72;5091365;28;20526;-35
2022/08/15 02:02:20;;;;;;;4.05;3.13;;;;;;;28.34;37.66;96256.03;5093734;28;20397;-36
2022/08/15 02:04:46;;;;;;;3.53;3.22;;;;;;;28.35;37.63;96254.75;5093560;28;20035;-36
2022/08/15 02:07:17;;;;;;;3.38;3.08;;;;;;;28.33;37.69;96246.19;5093273;28;20505;-35
2022/08/15 02:09:48;;;;;;;3.17;2.88;;;;;;;28.33;37.40;96248.97;5093822;28;20335;-35
2022/08/15 02:12:16;;;;;;;3.47;3.17;;;;;;;28.32;37.17;96239.09;5093587;28;20385;-35
2022/08/15 02:14:41;;;;;;;3.13;2.83;;;;;;;28.32;36.84;96248.22;5093315;28;20424;-35
2022/08/15 02:17:09;;;;;;;3.53;3.22;;;;;;;28.34;37.13;96233.72;5093433;28;20028;-35
2022/08/15 02:19:36;;;;;;;3.50;3.20;;;;;;;28.37;36.99;96241.00;5093643;28;20020;-35
2022/08/15 02:22:04;;;;;;;3.53;3.22;;;;;;;28.35;37.19;96240.81;5093373;28;20035;-36
2022/08/15 02:24:29;;;;;;;3.08;2.85;;;;;;;28.36;36.77;96237.47;5093204;28;20469;-35
2022/08/15 02:26:55;;;;;;;3.55;3.25;;;;;;;28.30;37.24;96250.09;5093253;28;20021;-35
2022/08/15 02:29:26;;;;;;;3.55;3.25;;;;;;;28.24;36.97;96242.63;5093458;28;20358;-35
2022/08/15 02:31:54;;;;;;;3.47;3.17;;;;;;;28.27;37.05;96251.94;5093328;28;20385;-35
2022/08/15 02:34:20;;;;;;;4.13;3.72;;;;;;;28.27;36.76;96253.97;5093234;28;20466;-35
2022/08/15 02:36:46;;;;;;;4.10;3.70;;;;;;;28.32;36.73;96250.25;5093135;28;20031;-35
2022/08/15 02:39:11;;;;;;;4.05;3.75;;;;;;;28.35;36.63;96243.59;5093062;28;20028;-35
2022/08/15 02:41:43;;;;;;;3.90;3.60;;;;;;;28.31;36.49;96241.19;5093149;28;20035;-35
2022/08/15 02:44:11;;;;;;;4.13;3.72;;;;;;;28.30;36.75;96238.94;5093187;28;20024;-35
2022/08/15 02:46:37;;;;;;;3.95;3.65;;;;;;;28.29;36.55;96249.34;5093011;28;20412;-35
2022/08/15 02:49:10;;;;;;;5.35;3.75;;;;;;;28.28;36.33;96244.31;5093146;28;20458;-35
2022/08/15 02:51:37;;;;;;;3.67;3.38;;;;;;;28.29;36.54;96235.41;5093054;28;20028;-35
2022/08/15 02:54:05;;;;;;;4.05;3.70;;;;;;;28.30;36.08;96241.72;5093528;28;20078;-35
2022/08/15 02:56:31;;;;;;;4.20;3.80;;;;;;;28.24;36.55;96239.81;5092939;28;20043;-36
2022/08/15 02:58:57;;;;;;;3.92;3.63;;;;;;;28.26;36.30;96238.53;5093072;28;20031;-36
2022/08/15 03:01:24;;;;;;;4.28;3.88;;;;;;;28.24;36.41;96237.03;5092982;28;20020;-36
2022/08/15 03:03:51;;;;;;;4.70;4.30;;;;;;;28.27;36.12;96237.25;5092905;28;20020;-35
2022/08/15 03:06:20;;;;;;;4.13;3.72;;;;;;;28.28;36.05;96233.91;5092604;28;20043;-35
2022/08/15 03:08:46;;;;;;;4.65;4.25;;;;;;;28.28;36.19;96235.94;5092959;28;20028;-35
2022/08/15 03:11:13;;;;;;;4.53;4.13;;;;;;;28.28;36.30;96230.38;5094314;28;20034;-35
2022/08/15 03:13:40;;;;;;;4.57;4.18;;;;;;;28.27;36.07;96235.19;5096780;28;20027;-35
2022/08/15 03:16:06;;;;;;;4.50;4.10;;;;;;;28.25;36.21;96235.00;5096469;28;20020;-35
2022/08/15 03:18:34;;;;;;;4.22;3.83;;;;;;;28.25;35.95;96232.22;5096702;28;20047;-35
2022/08/15 03:21:04;;;;;;;4.65;4.25;;;;;;;28.26;36.05;96227.38;5096435;28;20028;-35
2022/08/15 03:23:32;;;;;;;4.53;4.13;;;;;;;28.26;35.98;96232.97;5096558;28;20047;-35
2022/08/15 03:25:59;;;;;;;4.85;4.45;;;;;;;28.26;36.05;96235.75;5096459;28;20051;-35
2022/08/15 03:28:31;;;;;;;4.80;4.30;;;;;;;28.24;36.07;96236.28;5096368;28;20088;-35
2022/08/15 03:30:59;;;;;;;5.43;4.78;;;;;;;28.24;35.89;96234.25;5096670;28;20063;-35
2022/08/15 03:33:27;;;;;;;4.82;4.43;;;;;;;28.23;36.00;96240.38;5096311;28;20494;-36
2022/08/15 03:35:52;;;;;;;5.63;4.35;;;;;;;28.21;35.94;96252.06;5095197;28;20049;-36
2022/08/15 03:38:18;;;;;;;4.90;4.50;;;;;;;28.22;35.93;96245.19;5096141;28;20016;-35
2022/08/15 03:40:46;;;;;;;5.60;5.10;;;;;;;28.24;35.67;96253.78;5096199;28;20409;-35
2022/08/15 03:43:29;;;;;;;4.32;3.92;;;;;;;28.23;35.99;96248.75;5096154;28;20016;-35
2022/08/15 03:46:01;;;;;;;4.47;4.07;;;;;;;28.21;35.84;96246.50;5096055;28;20031;-35
2022/08/15 03:48:31;;;;;;;5.30;4.57;;;;;;;28.20;35.97;96250.56;5095972;28;20024;-35
2022/08/15 03:51:01;;;;;;;5.43;4.35;;;;;;;28.20;36.07;96247.03;5096259;28;20028;-36
2022/08/15 03:53:29;;;;;;;5.10;4.60;;;;;;;28.23;35.52;96245.94;5095945;28;20016;-35
2022/08/15 03:55:57;;;;;;;4.88;4.43;;;;;;;28.23;35.85;96246.69;5095841;28;20035;-35
2022/08/15 03:58:23;;;;;;;4.95;4.50;;;;;;;28.19;35.96;96246.28;5095921;28;20077;-35
2022/08/15 04:00:49;;;;;;;4.22;3.83;;;;;;;28.20;35.83;96242.22;5096182;28;20392;-35
2022/08/15 04:03:18;;;;;;;5.10;4.70;;;;;;;28.19;35.80;96246.28;5095882;28;20073;-35
2022/08/15 04:05:52;;;;;;;4.97;4.57;;;;;;;28.20;35.59;96245.00;5095656;28;20490;-35
2022/08/15 04:08:21;;;;;;;4.68;4.28;;;;;;;28.20;35.63;96247.78;5095658;28;20354;-35
2022/08/15 04:10:51;;;;;;;5.07;4.53;;;;;;;28.19;35.72;96243.50;5095595;28;20420;-36
2022/08/15 04:13:20;;;;;;;4.78;4.38;;;;;;;28.21;35.50;96245.75;5095806;28;20024;-35
2022/08/15 04:15:46;;;;;;;4.80;4.40;;;;;;;28.17;35.55;96243.31;5095489;28;20483;-35
2022/08/15 04:18:11;;;;;;;5.03;4.53;;;;;;;28.19;35.47;96246.28;5095505;28;20073;-35
2022/08/15 04:20:37;;;;;;;5.20;4.70;;;;;;;28.18;35.38;96239.25;5095561;28;20019;-35
2022/08/15 04:23:06;;;;;;;4.90;4.50;;;;;;;28.19;35.25;96249.06;5094457;28;20039;-35
2022/08/15 04:25:38;;;;;;;4.85;4.13;;;;;;;28.16;35.52;96252.97;5095258;28;20051;-35
2022/08/15 04:28:05;;;;;;;4.63;4.22;;;;;;;28.16;35.37;96241.81;5095513;28;20016;-35
2022/08/15 04:30:36;;;;;;;4.95;4.32;;;;;;;28.17;35.34;96237.72;5095209;28;20020;-35
2022/08/15 04:33:16;;;;;;;4.80;4.30;;;;;;;28.17;35.35;96239.75;5095049;28;20440;-35
2022/08/15 04:35:45;;;;;;;4.35;3.97;;;;;;;28.15;35.34;96245.88;5095171;28;20112;-35
2022/08/15 04:38:11;;;;;;;4.65;4.22;;;;;;;28.16;35.29;96241.06;5094949;28;20478;-35
2022/08/15 04:40:36;;;;;;;5.15;4.57;;;;;;;28.13;35.25;96242.91;5095085;28;20106;-35
2022/08/15 04:43:03;;;;;;;5.32;4.20;;;;;;;28.16;35.10;96252.22;5094945;28;20048;-35
2022/08/15 04:45:31;;;;;;;4.72;4.30;;;;;;;28.16;34.86;96239.00;5094823;28;20496;-35
2022/08/15 04:48:02;;;;;;;5.18;4.68;;;;;;;28.14;35.37;96244.38;5095113;28;20062;-37
2022/08/15 04:50:30;;;;;;;4.63;4.10;;;;;;;28.16;35.24;96244.59;5095140;28;20365;-35
2022/08/15 04:52:57;;;;;;;4.78;4.05;;;;;;;28.14;34.99;96244.38;5094938;28;20072;-35
2022/08/15 04:55:24;;;;;;;4.32;3.92;;;;;;;28.16;35.05;96244.59;5094821;28;20016;-35
2022/08/15 04:57:50;;;;;;;4.55;4.15;;;;;;;28.16;35.21;96246.63;5094538;28;20034;-35
2022/08/15 05:00:19;;;;;;;4.63;4.18;;;;;;;28.12;35.01;96246.97;5094729;28;20080;-35
2022/08/15 05:03:11;;;;;;;4.65;4.25;;;;;;;28.14;35.15;96260.38;5094539;28;20016;-35
2022/08/15 05:05:41;;;;;;;4.38;3.97;;;;;;;28.15;35.01;96261.88;5094366;28;20028;-35
2022/08/15 05:08:08;;;;;;;4.47;4.07;;;;;;;28.14;35.25;96261.13;5094479;28;20085;-36
2022/08/15 05:10:33;;;;;;;5.18;4.68;;;;;;;28.12;34.82;96266.50;5094473;28;20031;-35
2022/08/15 05:13:09;;;;;;;5.22;3.85;;;;;;;28.13;34.92;96270.78;5094508;28;20028;-35
2022/08/15 05:15:35;;;;;;;4.63;4.15;;;;;;;28.13;35.10;96270.03;5094738;28;20451;-35
2022/08/15 05:18:02;;;;;;;4.88;4.45;;;;;;;28.11;35.13;96272.63;5094569;28;20035;-35
2022/08/15 05:20:28;;;;;;;4.30;3.90;;;;;;;28.13;34.85;96272.81;5094377;28;20024;-35
2022/08/15 05:22:58;;;;;;;4.10;3.70;;;;;;;28.14;34.92;96275.06;5094254;28;20081;-35
2022/08/15 05:25:23;;;;;;;3.90;3.60;;;;;;;28.05;35.33;96275.56;5094141;28;20492;-36
2022/08/15 05:27:49;;;;;;;5.05;3.92;;;;;;;28.04;35.46;96274.06;5094085;28;20114;-35
2022/08/15 05:30:15;;;;;;;4.25;3.83;;;;;;;28.13;34.89;96268.00;5094298;28;20020;-35
2022/08/15 05:32:41;;;;;;;4.00;3.70;;;;;;;28.11;35.23;96262.22;5094125;28;20047;-35
2022/08/15 05:35:07;;;;;;;4.38;3.97;;;;;;;28.10;35.36;96263.50;5093851;28;20030;-35
2022/08/15 05:37:33;;;;;;;3.78;3.42;;;;;;;28.11;35.05;96251.06;5094082;28;20024;-35
2022/08/15 05:39:59;;;;;;;4.20;3.83;;;;;;;28.11;35.41;96253.84;5092593;28;20485;-35
2022/08/15 05:42:54;;;;;;;4.38;3.97;;;;;;;28.10;35.02;96254.38;5094104;28;20032;-36
2022/08/15 05:45:37;;;;;;;4.32;3.85;;;;;;;28.13;35.36;96254.03;5093914;28;20500;-34
2022/08/15 05:48:15;;;;;;;4.28;3.88;;;;;;;28.11;35.25;96256.63;5093601;28;20027;-35
2022/08/15 05:51:13;;;;;;;3.90;3.47;;;;;;;28.12;35.39;96255.34;5094118;28;20095;-35
2022/08/15 05:53:39;;;;;;;3.95;3.58;;;;;;;28.09;35.23;96259.22;5092143;28;20482;-35
2022/08/15 05:56:36;;;;;;;4.20;3.80;;;;;;;28.09;35.35;96242.50;5093675;28;20016;-35
2022/08/15 05:59:12;;;;;;;4.63;4.22;;;;;;;28.14;35.39;96249.97;5093706;28;20565;-35
2022/08/15 06:01:49;;;;;;;4.00;3.70;;;;;;;28.10;35.22;96252.34;5093530;28;20052;-35
2022/08/15 06:04:17;;;;;;;4.07;3.65;;;;;;;28.11;35.59;96245.47;5093536;28;20096;-35
2022/08/15 06:06:46;;;;;;;4.20;3.80;;;;;;;28.12;35.75;96244.19;5093195;28;20142;-35
2022/08/15 06:09:41;;;;;;;4.13;3.20;;;;;;;28.11;35.62;96237.13;5093477;28;20035;-35
2022/08/15 06:12:12;;;;;;;3.95;3.65;;;;;;;28.15;35.58;96237.53;5093584;28;20027;-35
2022/08/15 06:14:46;;;;;;;3.63;3.33;;;;;;;28.14;35.74;96238.06;5093415;28;20030;-35
2022/08/15 06:17:32;;;;;;;3.75;3.45;;;;;;;28.14;35.75;96238.81;5093562;28;20019;-35
2022/08/15 06:20:03;;;;;;;3.80;3.50;;;;;;;28.09;35.74;96236.91;5093482;28;20519;-35
2022/08/15 06:22:56;;;;;;;4.05;3.72;;;;;;;28.08;35.70;96235.41;5093480;28;20020;-35
2022/08/15 06:25:37;;;;;;;3.70;3.40;;;;;;;28.08;36.26;96243.03;5093451;28;20116;-35
2022/08/15 06:28:11;;;;;;;4.18;3.78;;;;;;;28.09;35.99;96236.16;5093375;28;20107;-35
2022/08/15 06:31:14;;;;;;;3.80;3.50;;;;;;;28.06;36.06;96238.03;5093429;28;20028;-35
2022/08/15 06:34:20;;;;;;;4.00;3.60;;;;;;;28.08;35.95;96240.25;5093348;28;20044;-35
2022/08/15 06:37:06;;;;;;;3.70;3.40;;;;;;;28.05;35.90;96233.75;5070991;28;20382;-36
2022/08/15 06:39:46;;;;;;;4.32;3.92;;;;;;;28.10;35.90;96232.84;5070950;28;20024;-36
2022/08/15 06:42:37;;;;;;;4.30;3.90;;;;;;;28.08;35.88;96245.81;5070991;28;20040;-36
2022/08/15 06:45:21;;;;;;;4.05;3.75;;;;;;;28.08;36.03;96246.56;5070677;28;20390;-35
2022/08/15 06:47:49;;;;;;;4.20;3.80;;;;;;;28.10;35.85;96248.81;5074881;28;20486;-35
2022/08/15 06:50:24;;;;;;;4.05;3.75;;;;;;;28.08;36.06;96252.16;5074922;28;20056;-35
2022/08/15 06:52:58;;;;;;;4.13;3.72;;;;;;;28.09;36.04;96259.22;5074833;28;20071;-35
2022/08/15 06:55:29;;;;;;;4.10;3.58;;;;;;;28.11;35.53;96253.09;5075004;28;20036;-35
2022/08/15 06:58:08;;;;;;;4.03;3.63;;;;;;;28.09;35.73;96253.66;5074631;28;20087;-35
2022/08/15 07:01:01;;;;;;;3.80;3.50;;;;;;;28.10;35.48;96260.72;5074587;28;20036;-36
2022/08/15 07:03:39;;;;;;;3.80;3.42;;;;;;;28.09;35.45;96264.78;5074573;28;20031;-35
2022/08/15 07:06:10;;;;;;;3.97;3.67;;;;;;;28.09;35.85;96262.00;5074418;28;20484;-35
2022/08/15 07:08:50;;;;;;;4.60;4.20;;;;;;;28.08;35.84;96268.13;5074734;28;20021;-35
2022/08/15 07:11:50;;;;;;;4.40;3.40;;;;;;;28.08;35.70;96266.09;5074391;28;20430;-35
2022/08/15 07:14:15;;;;;;;4.20;3.80;;;;;;;28.10;35.76;96266.28;5096725;28;20469;-36
2022/08/15 07:16:50;;;;;;;3.92;3.63;;;;;;;28.09;35.62;96272.41;5096574;28;20031;-35
2022/08/15 07:19:16;;;;;;;4.70;4.20;;;;;;;28.10;35.96;96271.13;5096605;28;20050;-36
2022/08/15 07:21:43;;;;;;;4.20;3.80;;;;;;;28.08;35.55;96263.31;5096568;28;20469;-36
2022/08/15 07:24:17;;;;;;;3.90;3.60;;;;;;;28.04;35.88;96262.91;5096731;28;20028;-35
2022/08/15 07:26:55;;;;;;;4.40;4.00;;;;;;;27.95;35.83;96276.59;5096351;28;20158;-36
2022/08/15 07:29:45;;;;;;;3.97;3.53;;;;;;;28.05;35.82;96278.34;5095201;28;20380;-35
2022/08/15 07:32:25;;;;;;;3.08;2.88;;;;;;;28.08;35.79;96277.25;5096349;28;20044;-35
2022/08/15 07:35:16;;;;;;;3.90;3.50;;;;;;;28.08;35.56;96288.38;5096232;28;20482;-36
2022/08/15 07:37:48;;;;;;;3.95;3.63;;;;;;;28.09;35.81;96289.13;5096368;28;20073;-35
2022/08/15 07:40:25;;;;;;;4.43;3.77;;;;;;;28.10;35.60;96296.22;5096335;28;20016;-35
2022/08/15 07:42:51;;;;;;;4.03;3.72;;;;;;;28.09;35.26;96303.06;5096131;28;20028;-35
2022/08/15 07:45:25;;;;;;;3.92;3.63;;;;;;;28.10;35.41;96291.38;5096094;28;20024;-35
2022/08/15 07:48:03;;;;;;;3.70;3.35;;;;;;;28.03;35.48;96289.31;5096382;28;20024;-35
2022/08/15 07:50:45;;;;;;;4.35;3.95;;;;;;;28.04;35.57;96290.78;5096258;28;20103;-36
2022/08/15 07:53:19;;;;;;;4.47;3.97;;;;;;;28.02;35.64;96287.81;5095884;28;20028;-35
2022/08/15 07:56:17;;;;;;;4.15;3.42;;;;;;;27.81;35.94;96281.53;5096016;28;20020;-35
2022/08/15 07:58:44;;;;;;;3.95;3.55;;;;;;;27.82;35.98;96274.63;5072172;28;20115;-35
2022/08/15 08:01:12;;;;;;;3.42;3.13;;;;;;;27.84;35.91;96266.47;5073392;28;20044;-36
2022/08/15 08:03:42;;;;;;;3.70;3.28;;;;;;;28.00;35.21;96256.19;5073652;28;20017;-35
2022/08/15 08:06:19;;;;;;;3.92;3.50;;;;;;;27.89;35.78;96271.16;5056501;28;20403;-36
2022/08/15 08:08:57;;;;;;;3.72;3.42;;;;;;;27.99;35.49;96272.16;5073533;28;20055;-35
2022/08/15 08:11:56;;;;;;;3.90;3.40;;;;;;;28.07;35.39;96291.72;5073485;28;20028;-35
2022/08/15 08:14:50;;;;;;;3.88;3.05;;;;;;;28.03;35.21;96317.19;5072809;28;20041;-35
2022/08/15 08:17:24;;;;;;;4.90;3.28;;;;;;;28.03;35.48;96333.91;5072267;28;20056;-35
2022/08/15 08:20:13;;;;;;;3.47;3.17;;;;;;;28.05;35.59;96336.16;5073383;28;20029;-35
2022/08/15 08:22:50;;;;;;;3.65;3.35;;;;;;;28.03;35.80;96342.25;5073152;28;20032;-36
2022/08/15 08:25:35;;;;;;;3.13;2.83;;;;;;;28.04;36.15;96377.22;5073019;28;20032;-35
2022/08/15 08:28:28;;;;;;;3.60;3.30;;;;;;;28.07;36.22;96387.25;5073039;28;20044;-35
2022/08/15 08:31:02;;;;;;;3.15;2.85;;;;;;;28.07;35.92;96392.81;5073051;28;20062;-35
2022/08/15 08:33:55;;;;;;;3.30;3.00;;;;;;;28.04;35.86;96388.38;5076646;28;20385;-36
2022/08/15 08:36:37;;;;;;;3.38;3.08;;;;;;;28.09;35.90;96364.41;5096978;28;20020;-35
2022/08/15 08:39:12;;;;;;;3.72;3.42;;;;;;;28.07;35.77;96339.84;5095083;28;20020;-35
2022/08/15 08:41:47;;;;;;;3.35;3.05;;;;;;;28.11;36.06;96328.38;5094983;28;20028;-35
2022/08/15 08:44:54;;;;;;;3.55;3.25;;;;;;;28.07;36.03;96339.84;5097640;28;20024;-36
2022/08/15 08:47:38;;;;;;;4.22;3.83;;;;;;;28.05;36.08;96327.78;5104804;28;20036;-35
2022/08/15 08:50:22;;;;;;;3.55;3.25;;;;;;;27.98;36.56;96343.13;5105105;28;20389;-35
2022/08/15 08:53:03;;;;;;;3.90;3.30;;;;;;;28.09;36.53;96353.25;5109843;28;20055;-35
2022/08/15 08:55:47;;;;;;;3.75;3.45;;;;;;;28.12;36.40;96354.97;5115233;28;20149;-35
2022/08/15 08:58:20;;;;;;;3.53;3.22;;;;;;;28.15;36.37;96367.81;5115054;27;20047;-35
2022/08/15 09:00:50;;;;;;;3.30;3.00;;;;;;;28.08;37.07;96352.50;5115160;28;20055;-35
2022/08/15 09:03:31;;;;;;;3.58;3.28;;;;;;;28.13;37.07;96342.53;5114937;28;20030;-35
2022/08/15 09:05:58;;;;;;;3.47;3.17;;;;;;;28.18;36.97;96350.78;5114957;28;20484;-35
2022/08/15 09:08:32;;;;;;;3.30;3.00;;;;;;;28.10;37.44;96351.97;5114803;28;20024;-36
2022/08/15 09:11:23;;;;;;;3.60;3.30;;;;;;;28.10;37.07;96349.19;5115225;27;20035;-35
2022/08/15 09:13:50;;;;;;;4.40;3.55;;;;;;;28.12;37.53;96346.59;5111655;28;20035;-36
2022/08/15 09:16:42;;;;;;;7.38;3.40;;;;;;;27.93;41.01;96346.09;5114706;28;20027;-35
2022/08/15 09:19:25;;;;;;;3.05;2.75;;;;;;;27.94;39.89;96353.91;5113721;28;20496;-35
2022/08/15 09:21:52;;;;;;;3.58;3.28;;;;;;;28.04;38.77;96365.31;5114756;28;20050;-36
2022/08/15 09:24:20;;;;;;;3.63;3.17;;;;;;;28.02;38.96;96365.84;5114623;28;20389;-35
2022/08/15 09:26:54;;;;;;;5.65;3.75;;;;;;;27.97;40.01;96358.38;5114378;27;20469;-35
2022/08/15 09:29:19;;;;;;;3.58;3.20;;;;;;;27.81;40.86;96340.03;5114737;28;20381;-35
2022/08/15 09:31:58;;;;;;;4.30;3.40;;;;;;;27.58;43.59;96339.06;5114409;28;20024;-35
2022/08/15 09:34:46;;;;;;;5.70;3.28;;;;;;;27.05;46.66;96342.75;5114670;28;20027;-35
2022/08/15 09:37:33;;;;;;;3.08;2.88;;;;;;;27.51;44.43;96332.84;5113261;28;20016;-35
2022/08/15 09:40:35;;;;;;;4.00;3.20;;;;;;;27.73;43.35;96334.38;5114501;28;20030;-35
2022/08/15 09:43:24;;;;;;;5.77;3.30;;;;;;;27.88;44.20;96322.63;5114153;28;20023;-37
2022/08/15 09:46:24;;;;;;;4.07;3.15;;;;;;;27.79;46.40;96314.75;5114036;28;20024;-36
2022/08/15 09:49:11;;;;;;;4.32;3.10;;;;;;;27.86;43.94;96302.91;5114114;28;20045;-35
2022/08/15 09:51:58;;;;;;;4.28;3.33;;;;;;;27.77;46.12;96289.47;5114366;28;20043;-35
2022/08/15 09:54:28;;;;;;;5.75;3.38;;;;;;;27.72;45.98;96291.09;5114077;28;20028;-35
2022/08/15 09:57:31;;;;;;;5.18;3.08;;;;;;;27.62;46.67;96283.75;5114406;28;20526;-35
2022/08/15 10:00:17;;;;;;;4.15;3.30;;;;;;;27.61;47.83;96285.81;5114211;28;20050;-35
2022/08/15 10:02:50;;;;;;;3.47;3.17;;;;;;;27.67;47.01;96296.81;5114016;28;20031;-35
2022/08/15 10:05:23;;;;;;;;;;;;;;;27.89;46.19;96294.22;5114339;28;20020;-35
2022/08/15 10:07:58;;;;;;;;;;;;;;;27.85;45.69;96288.22;5114132;28;19916;-35
2022/08/15 10:10:34;;;;;;;4.00;3.10;;;;;;;27.97;43.72;96279.56;5114039;28;19919;-35
2022/08/15 10:13:26;;;;;;;3.42;3.03;;;;;;;28.08;43.87;96282.81;5113860;28;20031;-35
2022/08/15 10:15:53;;;;;;;4.50;3.20;;;;;;;27.83;45.50;96298.41;5114118;28;20015;-35
2022/08/15 10:18:22;;;;;;;4.75;3.33;;;;;;;27.94;45.11;96287.00;5114102;28;20077;-35
2022/08/15 10:20:52;;;;;;;4.15;3.38;;;;;;;27.81;45.52;96284.31;5113038;28;20046;-35
2022/08/15 10:23:42;;;;;;;3.72;3.05;;;;;;;27.50;48.97;96297.19;5113818;28;20030;-35
2022/08/15 10:26:13;;;;;;;4.85;3.10;;;;;;;27.85;45.45;96284.69;5113668;28;20059;-35
2022/08/15 10:28:40;;;;;;;3.60;3.30;;;;;;;28.01;44.65;96294.66;5113656;28;20076;-36
2022/08/15 10:31:08;;;;;;;4.90;2.95;;;;;;;28.00;45.80;96286.84;5113794;28;20538;-35
2022/08/15 10:33:36;;;;;;;4.60;3.30;;;;;;;27.87;46.19;96282.09;5113631;28;20031;-35
2022/08/15 10:36:16;;;;;;;4.32;3.13;;;;;;;27.78;48.31;96291.72;5113631;28;20401;-35
2022/08/15 10:39:19;;;;;;;4.82;3.10;;;;;;;27.92;46.03;96305.56;5114085;28;20167;-35
2022/08/15 10:41:47;;;;;;;4.03;2.90;;;;;;;27.95;45.35;96294.06;5113499;28;20019;-35
2022/08/15 10:44:15;;;;;;;4.90;3.58;;;;;;;28.02;45.79;96295.41;5113729;28;20024;-36
2022/08/15 10:47:13;;;;;;;3.30;3.00;;;;;;;27.82;47.17;96285.78;5113305;28;20015;-35
2022/08/15 10:49:56;;;;;;;4.78;3.35;;;;;;;27.84;47.10;96278.38;5114132;28;20028;-35
2022/08/15 10:52:42;;;;;;;4.85;3.15;;;;;;;27.94;47.26;96286.25;5112190;28;20388;-37
2022/08/15 10:55:28;;;;;;;3.97;2.92;;;;;;;28.03;46.86;96277.41;5113393;28;20015;-36
2022/08/15 10:58:00;;;;;;;5.28;3.30;;;;;;;28.03;47.69;96271.81;5113396;28;20024;-35
2022/08/15 11:00:29;;;;;;;5.75;3.10;;;;;;;28.22;46.30;96277.91;5113418;28;20481;-35
2022/08/15 11:02:55;;;;;;;5.18;2.90;;;;;;;28.31;45.97;96276.69;5113120;28;20032;-35
2022/08/15 11:05:26;;;;;;;4.78;3.35;;;;;;;28.18;46.54;96283.84;5113363;28;20029;-35
2022/08/15 11:07:54;;;;;;;3.88;2.92;;;;;;;28.12;46.39;96279.69;5113723;28;20077;-35
2022/08/15 11:10:24;;;;;;;3.88;3.40;;;;;;;28.13;45.95;96293.09;5113309;28;20045;-35
2022/08/15 11:12:54;;;;;;;3.80;3.40;;;;;;;27.94;46.60;96295.38;5113283;28;20050;-35
2022/08/15 11:15:20;;;;;;;3.63;2.90;;;;;;;27.96;45.96;96289.97;5113483;28;20024;-36
2022/08/15 11:17:52;;;;;;;4.85;3.08;;;;;;;28.18;46.61;96283.84;5113188;28;20080;-35
2022/08/15 11:20:23;;;;;;;3.43;3.03;;;;;;;28.19;45.58;96267.84;5113460;28;20119;-35
2022/08/15 11:22:59;;;;;;;7.00;3.38;;;;;;;28.19;46.46;96263.03;5113159;28;20070;-35
2022/08/15 11:25:33;;;;;;;4.40;2.90;;;;;;;28.26;45.83;96261.59;5113240;28;20419;-35
2022/08/15 11:28:18;;;;;;;4.45;3.40;;;;;;;28.42;44.95;96256.84;5113128;28;20049;-35
2022/08/15 11:30:44;;;;;;;4.75;3.25;;;;;;;28.40;45.85;96262.97;5113404;28;20050;-35
2022/08/15 11:33:26;;;;;;;6.25;3.50;;;;;;;28.32;46.15;96261.41;5115927;28;20030;-35
2022/08/15 11:36:26;;;;;;;3.88;2.95;;;;;;;28.31;45.70;96248.78;5116790;28;20019;-35
2022/08/15 11:38:56;;;;;;;4.40;3.25;;;;;;;28.27;45.97;96253.97;5117088;28;20023;-36
2022/08/15 11:41:27;;;;;;;4.55;3.20;;;;;;;28.29;46.02;96254.16;5116968;28;20035;-35
2022/08/15 11:43:57;;;;;;;5.50;3.47;;;;;;;28.17;46.23;96245.34;5115414;28;20020;-35
2022/08/15 11:46:25;;;;;;;4.50;3.08;;;;;;;28.27;45.82;96248.41;5116476;28;20027;-35
2022/08/15 11:49:09;;;;;;;4.30;3.13;;;;;;;28.35;45.81;96252.72;5116643;28;20473;-35
2022/08/15 11:51:57;;;;;;;4.13;2.92;;;;;;;28.28;46.44;96247.09;5116713;28;20055;-35
2022/08/15 11:54:24;;;;;;;5.43;3.40;;;;;;;28.28;46.70;96252.69;5116520;28;20027;-35
2022/08/15 11:56:57;;;;;;;4.75;3.38;;;;;;;28.31;46.37;96271.09;5116451;28;20020;-35
2022/08/15 11:59:27;;;;;;;7.32;3.50;;;;;;;28.28;46.81;96253.44;5116226;28;20027;-35
2022/08/15 12:02:19;;;;;;;5.68;3.53;;;;;;;28.27;46.76;96256.75;5116242;28;20035;-35
2022/08/15 12:04:46;;;;;;;3.55;3.25;;;;;;;28.27;46.27;96259.53;5107537;28;20035;-35
2022/08/15 12:07:23;;;;;;;5.22;3.60;;;;;;;28.36;46.86;96267.41;5115794;28;20413;-36
2022/08/15 12:10:17;;;;;;;3.58;3.15;;;;;;;28.40;46.16;96254.59;5116150;28;20019;-38